sensor_id;sensor_type;location;lat;lon;timestamp;pressure;altitude;pressure_sealevel;temperature;humidity
829;BME280;396;52.558;13.188;2023-01-29T00:00:00;102172.84;;;0.77;84.10
829;BME280;396;52.558;13.188;2023-01-29T00:02:30;102170.41;;;0.82;83.98
829;BME280;396;52.558;13.188;2023-01-29T00:04:57;102175.97;;;0.87;83.82
829;BME280;396;52.558;13.188;2023-01-29T00:07:24;102171.28;;;0.89;83.46
829;BME280;396;52.558;13.188;2023-01-29T00:09:50;102175.31;;;0.78;83.96
829;BME280;396;52.558;13.188;2023-01-29T00:12:18;102174.53;;;0.84;83.94
829;BME280;396;52.558;13.188;2023-01-29T00:14:45;102181.50;;;0.85;83.86
829;BME280;396;52.558;13.188;2023-01-29T00:17:11;102179.28;;;0.89;83.93
829;BME280;396;52.558;13.188;2023-01-29T00:19:38;102166.88;;;0.74;84.66
829;BME280;396;52.558;13.188;2023-01-29T00:22:05;102165.06;;;0.82;84.78
829;BME280;396;52.558;13.188;2023-01-29T00:24:31;102164.09;;;0.89;84.98
829;BME280;396;52.558;13.188;2023-01-29T00:26:58;102161.81;;;0.93;84.04
829;BME280;396;52.558;13.188;2023-01-29T00:29:26;102165.53;;;0.92;84.46
829;BME280;396;52.558;13.188;2023-01-29T00:31:52;102160.41;;;0.90;83.80
829;BME280;396;52.558;13.188;2023-01-29T00:34:19;102156.25;;;0.81;85.18
829;BME280;396;52.558;13.188;2023-01-29T00:36:47;102148.63;;;0.78;85.27
829;BME280;396;52.558;13.188;2023-01-29T00:39:13;102152.13;;;0.79;84.84
829;BME280;396;52.558;13.188;2023-01-29T00:41:40;102141.03;;;0.75;85.04
829;BME280;396;52.558;13.188;2023-01-29T00:44:25;102135.91;;;0.73;85.68
829;BME280;396;52.558;13.188;2023-01-29T00:47:17;102133.00;;;0.68;86.08
829;BME280;396;52.558;13.188;2023-01-29T00:49:57;102136.28;;;0.70;86.10
829;BME280;396;52.558;13.188;2023-01-29T00:52:24;102139.59;;;0.72;87.24
829;BME280;396;52.558;13.188;2023-01-29T00:54:51;102138.78;;;0.79;86.41
829;BME280;396;52.558;13.188;2023-01-29T00:57:17;102141.28;;;0.80;86.79
829;BME280;396;52.558;13.188;2023-01-29T00:59:45;102142.72;;;0.83;86.65
829;BME280;396;52.558;13.188;2023-01-29T01:02:13;102147.38;;;0.74;88.60
829;BME280;396;52.558;13.188;2023-01-29T01:04:57;102144.28;;;0.70;87.09
829;BME280;396;52.558;13.188;2023-01-29T01:07:26;102152.53;;;0.75;87.92
829;BME280;396;52.558;13.188;2023-01-29T01:09:53;102151.47;;;0.70;87.85
829;BME280;396;52.558;13.188;2023-01-29T01:12:37;102149.66;;;0.77;87.55
829;BME280;396;52.558;13.188;2023-01-29T01:15:05;102153.16;;;0.78;87.44
829;BME280;396;52.558;13.188;2023-01-29T01:17:32;102146.59;;;0.80;87.38
829;BME280;396;52.558;13.188;2023-01-29T01:19:59;102148.25;;;0.88;86.83
829;BME280;396;52.558;13.188;2023-01-29T01:22:26;102147.59;;;0.79;86.66
829;BME280;396;52.558;13.188;2023-01-29T01:24:53;102148.44;;;0.80;86.55
829;BME280;396;52.558;13.188;2023-01-29T01:27:20;102152.28;;;0.70;87.41
829;BME280;396;52.558;13.188;2023-01-29T01:29:46;102138.56;;;0.73;87.48
829;BME280;396;52.558;13.188;2023-01-29T01:32:15;102131.81;;;0.78;87.88
829;BME280;396;52.558;13.188;2023-01-29T01:34:41;102132.03;;;0.83;88.09
829;BME280;396;52.558;13.188;2023-01-29T01:37:09;102129.38;;;0.83;87.44
829;BME280;396;52.558;13.188;2023-01-29T01:39:36;102141.94;;;0.89;86.97
829;BME280;396;52.558;13.188;2023-01-29T01:42:03;102144.59;;;0.89;87.73
829;BME280;396;52.558;13.188;2023-01-29T01:44:51;102146.41;;;0.88;87.39
829;BME280;396;52.558;13.188;2023-01-29T01:47:25;102148.25;;;0.81;87.73
829;BME280;396;52.558;13.188;2023-01-29T01:49:53;102145.19;;;0.84;88.43
829;BME280;396;52.558;13.188;2023-01-29T01:52:22;102136.19;;;0.92;87.65
829;BME280;396;52.558;13.188;2023-01-29T01:54:50;102133.56;;;0.98;87.60
829;BME280;396;52.558;13.188;2023-01-29T01:57:19;102138.06;;;0.98;87.69
829;BME280;396;52.558;13.188;2023-01-29T01:59:52;102127.81;;;1.01;87.56
829;BME280;396;52.558;13.188;2023-01-29T02:02:21;102122.25;;;0.96;87.92
829;BME280;396;52.558;13.188;2023-01-29T02:05:05;102118.38;;;0.99;87.83
829;BME280;396;52.558;13.188;2023-01-29T02:07:50;102111.41;;;0.98;88.28
829;BME280;396;52.558;13.188;2023-01-29T02:10:39;102105.66;;;1.01;88.29
829;BME280;396;52.558;13.188;2023-01-29T02:13:07;102110.19;;;1.07;87.53
829;BME280;396;52.558;13.188;2023-01-29T02:15:34;102110.81;;;1.09;87.34
829;BME280;396;52.558;13.188;2023-01-29T02:18:03;102110.59;;;1.04;87.88
829;BME280;396;52.558;13.188;2023-01-29T02:20:30;102104.00;;;1.00;88.53
829;BME280;396;52.558;13.188;2023-01-29T02:26:03;102108.13;;;1.09;88.10
829;BME280;396;52.558;13.188;2023-01-29T02:28:39;102110.19;;;1.07;88.08
829;BME280;396;52.558;13.188;2023-01-29T02:31:17;102109.78;;;1.10;88.11
829;BME280;396;52.558;13.188;2023-01-29T02:33:50;102110.22;;;1.14;88.11
829;BME280;396;52.558;13.188;2023-01-29T02:36:26;102101.78;;;1.10;88.53
829;BME280;396;52.558;13.188;2023-01-29T02:39:01;102096.69;;;1.15;88.26
829;BME280;396;52.558;13.188;2023-01-29T02:41:31;102105.69;;;1.14;88.52
829;BME280;396;52.558;13.188;2023-01-29T02:44:07;102104.69;;;1.15;88.54
829;BME280;396;52.558;13.188;2023-01-29T02:46:38;102099.75;;;1.19;88.49
829;BME280;396;52.558;13.188;2023-01-29T02:49:15;102097.50;;;1.22;88.17
829;BME280;396;52.558;13.188;2023-01-29T02:51:50;102098.75;;;1.20;88.18
829;BME280;396;52.558;13.188;2023-01-29T02:54:24;102097.50;;;1.22;88.14
829;BME280;396;52.558;13.188;2023-01-29T02:56:55;102098.53;;;1.21;88.91
829;BME280;396;52.558;13.188;2023-01-29T02:59:30;102090.53;;;1.21;88.92
829;BME280;396;52.558;13.188;2023-01-29T03:02:02;102087.44;;;1.18;88.66
829;BME280;396;52.558;13.188;2023-01-29T03:04:35;102095.00;;;1.08;89.01
829;BME280;396;52.558;13.188;2023-01-29T03:07:09;102093.16;;;1.08;89.52
829;BME280;396;52.558;13.188;2023-01-29T03:09:50;102095.63;;;1.10;89.60
829;BME280;396;52.558;13.188;2023-01-29T03:12:24;102087.19;;;1.06;89.55
829;BME280;396;52.558;13.188;2023-01-29T03:15:02;102088.00;;;1.00;90.15
829;BME280;396;52.558;13.188;2023-01-29T03:17:44;102086.59;;;1.04;89.63
829;BME280;396;52.558;13.188;2023-01-29T03:22:45;102088.69;;;1.15;89.99
829;BME280;396;52.558;13.188;2023-01-29T03:25:16;102098.31;;;1.16;89.94
829;BME280;396;52.558;13.188;2023-01-29T03:28:03;102092.56;;;1.19;89.91
829;BME280;396;52.558;13.188;2023-01-29T03:30:52;102083.75;;;1.19;90.06
829;BME280;396;52.558;13.188;2023-01-29T03:33:42;102078.22;;;1.20;89.64
829;BME280;396;52.558;13.188;2023-01-29T03:36:14;102071.03;;;1.27;89.89
829;BME280;396;52.558;13.188;2023-01-29T03:38:42;102069.19;;;1.28;89.64
829;BME280;396;52.558;13.188;2023-01-29T03:41:14;102057.28;;;1.31;89.93
829;BME280;396;52.558;13.188;2023-01-29T03:43:51;102037.97;;;1.22;90.79
829;BME280;396;52.558;13.188;2023-01-29T03:46:26;102034.69;;;1.13;93.54
829;BME280;396;52.558;13.188;2023-01-29T03:48:59;102041.22;;;1.04;94.43
829;BME280;396;52.558;13.188;2023-01-29T03:51:32;102042.44;;;1.01;95.65
829;BME280;396;52.558;13.188;2023-01-29T03:54:06;102028.47;;;0.86;97.48
829;BME280;396;52.558;13.188;2023-01-29T03:56:45;102023.13;;;0.86;97.95
829;BME280;396;52.558;13.188;2023-01-29T03:59:24;102017.34;;;0.83;99.27
829;BME280;396;52.558;13.188;2023-01-29T04:01:58;102013.66;;;0.77;100.00
829;BME280;396;52.558;13.188;2023-01-29T04:04:28;102002.56;;;0.73;100.00
829;BME280;396;52.558;13.188;2023-01-29T04:07:04;101998.06;;;0.74;100.00
829;BME280;396;52.558;13.188;2023-01-29T04:09:36;101999.69;;;0.68;100.00
829;BME280;396;52.558;13.188;2023-01-29T04:12:07;101982.03;;;0.67;100.00
829;BME280;396;52.558;13.188;2023-01-29T04:14:35;101981.22;;;0.67;100.00
829;BME280;396;52.558;13.188;2023-01-29T04:17:07;101980.97;;;0.62;100.00
829;BME280;396;52.558;13.188;2023-01-29T04:19:35;101979.97;;;0.63;100.00
829;BME280;396;52.558;13.188;2023-01-29T04:22:04;101983.69;;;0.68;100.00
829;BME280;396;52.558;13.188;2023-01-29T04:24:33;101982.03;;;0.67;100.00
829;BME280;396;52.558;13.188;2023-01-29T04:27:09;101974.22;;;0.59;100.00
829;BME280;396;52.558;13.188;2023-01-29T04:29:48;101965.81;;;0.56;100.00
829;BME280;396;52.558;13.188;2023-01-29T04:32:25;101959.44;;;0.50;100.00
829;BME280;396;52.558;13.188;2023-01-29T04:34:59;101955.34;;;0.54;100.00
829;BME280;396;52.558;13.188;2023-01-29T04:37:34;101968.06;;;0.59;100.00
829;BME280;396;52.558;13.188;2023-01-29T04:40:11;101968.91;;;0.59;100.00
829;BME280;396;52.558;13.188;2023-01-29T04:42:43;101974.22;;;0.59;100.00
829;BME280;396;52.558;13.188;2023-01-29T04:45:18;101976.25;;;0.57;100.00
829;BME280;396;52.558;13.188;2023-01-29T04:47:49;101984.50;;;0.62;100.00
829;BME280;396;52.558;13.188;2023-01-29T04:50:23;101979.38;;;0.67;100.00
829;BME280;396;52.558;13.188;2023-01-29T04:52:57;101963.81;;;0.71;100.00
829;BME280;396;52.558;13.188;2023-01-29T04:55:32;101966.69;;;0.76;100.00
829;BME280;396;52.558;13.188;2023-01-29T04:58:06;101979.41;;;0.81;100.00
829;BME280;396;52.558;13.188;2023-01-29T05:00:38;101978.59;;;0.80;100.00
829;BME280;396;52.558;13.188;2023-01-29T05:03:08;101981.06;;;0.82;100.00
829;BME280;396;52.558;13.188;2023-01-29T05:05:39;101967.50;;;0.83;100.00
829;BME280;396;52.558;13.188;2023-01-29T05:08:07;101982.50;;;0.84;100.00
829;BME280;396;52.558;13.188;2023-01-29T05:10:34;101981.06;;;0.82;100.00
829;BME280;396;52.558;13.188;2023-01-29T05:13:03;101978.59;;;0.87;100.00
829;BME280;396;52.558;13.188;2023-01-29T05:15:34;101966.91;;;0.88;100.00
829;BME280;396;52.558;13.188;2023-01-29T05:18:02;101966.50;;;0.84;100.00
829;BME280;396;52.558;13.188;2023-01-29T05:20:36;101968.75;;;0.87;100.00
829;BME280;396;52.558;13.188;2023-01-29T05:23:04;101971.03;;;0.90;100.00
829;BME280;396;52.558;13.188;2023-01-29T05:25:34;101967.31;;;0.91;100.00
829;BME280;396;52.558;13.188;2023-01-29T05:28:01;101971.84;;;0.91;100.00
829;BME280;396;52.558;13.188;2023-01-29T05:30:31;101967.75;;;0.95;100.00
829;BME280;396;52.558;13.188;2023-01-29T05:32:58;101978.19;;;0.96;100.00
829;BME280;396;52.558;13.188;2023-01-29T05:35:25;101978.84;;;1.05;100.00
829;BME280;396;52.558;13.188;2023-01-29T05:37:54;101977.63;;;1.08;100.00
829;BME280;396;52.558;13.188;2023-01-29T05:40:20;101988.50;;;1.13;100.00
829;BME280;396;52.558;13.188;2023-01-29T05:42:47;101979.06;;;1.17;100.00
829;BME280;396;52.558;13.188;2023-01-29T05:45:14;101978.84;;;1.18;100.00
829;BME280;396;52.558;13.188;2023-01-29T05:47:41;101977.22;;;1.17;100.00
829;BME280;396;52.558;13.188;2023-01-29T05:50:08;101980.69;;;1.18;100.00
829;BME280;396;52.558;13.188;2023-01-29T05:52:35;101979.06;;;1.17;100.00
829;BME280;396;52.558;13.188;2023-01-29T05:55:04;101989.13;;;1.21;100.00
829;BME280;396;52.558;13.188;2023-01-29T05:57:31;101991.16;;;1.19;100.00
829;BME280;396;52.558;13.188;2023-01-29T05:59:57;101988.50;;;1.19;100.00
829;BME280;396;52.558;13.188;2023-01-29T06:02:24;101995.28;;;1.22;100.00
829;BME280;396;52.558;13.188;2023-01-29T06:04:51;102001.63;;;1.27;100.00
829;BME280;396;52.558;13.188;2023-01-29T06:07:17;101997.97;;;1.29;100.00
829;BME280;396;52.558;13.188;2023-01-29T06:09:44;102003.31;;;1.29;100.00
829;BME280;396;52.558;13.188;2023-01-29T06:12:12;102003.69;;;1.32;100.00
829;BME280;396;52.558;13.188;2023-01-29T06:14:38;102011.72;;;1.25;99.97
829;BME280;396;52.558;13.188;2023-01-29T06:17:05;102011.28;;;1.22;100.00
829;BME280;396;52.558;13.188;2023-01-29T06:19:32;102011.28;;;1.22;100.00
829;BME280;396;52.558;13.188;2023-01-29T06:21:58;101997.13;;;1.21;100.00
829;BME280;396;52.558;13.188;2023-01-29T06:24:25;101992.41;;;1.23;100.00
829;BME280;396;52.558;13.188;2023-01-29T06:26:51;101994.66;;;1.26;100.00
829;BME280;396;52.558;13.188;2023-01-29T06:29:19;101990.16;;;1.27;100.00
829;BME280;396;52.558;13.188;2023-01-29T06:31:46;101992.81;;;1.27;100.00
829;BME280;396;52.558;13.188;2023-01-29T06:34:12;101995.47;;;1.27;100.00
829;BME280;396;52.558;13.188;2023-01-29T06:36:39;101992.81;;;1.20;100.00
829;BME280;396;52.558;13.188;2023-01-29T06:39:06;101989.72;;;1.23;100.00
829;BME280;396;52.558;13.188;2023-01-29T06:41:33;101990.56;;;1.31;100.00
829;BME280;396;52.558;13.188;2023-01-29T06:44:00;101998.56;;;1.31;100.00
829;BME280;396;52.558;13.188;2023-01-29T06:46:28;101990.34;;;1.32;100.00
829;BME280;396;52.558;13.188;2023-01-29T06:48:56;102002.28;;;1.30;100.00
829;BME280;396;52.558;13.188;2023-01-29T06:51:23;102009.88;;;1.26;100.00
829;BME280;396;52.558;13.188;2023-01-29T06:53:49;102012.94;;;1.30;100.00
829;BME280;396;52.558;13.188;2023-01-29T06:56:18;102003.69;;;1.32;100.00
829;BME280;396;52.558;13.188;2023-01-29T06:58:46;102003.91;;;1.31;100.00
829;BME280;396;52.558;13.188;2023-01-29T07:01:13;102004.34;;;1.34;100.00
829;BME280;396;52.558;13.188;2023-01-29T07:03:41;102001.03;;;1.39;100.00
829;BME280;396;52.558;13.188;2023-01-29T07:06:07;101997.34;;;1.40;100.00
829;BME280;396;52.558;13.188;2023-01-29T07:08:35;101995.72;;;1.39;100.00
829;BME280;396;52.558;13.188;2023-01-29T07:11:03;101997.34;;;1.33;100.00
829;BME280;396;52.558;13.188;2023-01-29T07:13:31;101987.47;;;1.40;100.00
829;BME280;396;52.558;13.188;2023-01-29T07:15:58;101976.59;;;1.35;100.00
829;BME280;396;52.558;13.188;2023-01-29T07:18:24;101980.50;;;1.39;100.00
829;BME280;396;52.558;13.188;2023-01-29T07:20:52;101998.78;;;1.42;100.00
829;BME280;396;52.558;13.188;2023-01-29T07:23:19;101993.84;;;1.39;100.00
829;BME280;396;52.558;13.188;2023-01-29T07:25:46;102000.66;;;1.42;100.00
829;BME280;396;52.558;13.188;2023-01-29T07:28:14;102005.34;;;1.40;100.00
829;BME280;396;52.558;13.188;2023-01-29T07:30:40;102003.91;;;1.44;100.00
829;BME280;396;52.558;13.188;2023-01-29T07:33:08;102001.47;;;1.42;100.00
829;BME280;396;52.558;13.188;2023-01-29T07:35:36;102007.59;;;1.36;100.00
829;BME280;396;52.558;13.188;2023-01-29T07:38:04;102012.94;;;1.36;100.00
829;BME280;396;52.558;13.188;2023-01-29T07:40:31;102000.66;;;1.42;100.00
829;BME280;396;52.558;13.188;2023-01-29T07:42:58;101981.97;;;1.42;100.00
829;BME280;396;52.558;13.188;2023-01-29T07:45:25;101981.75;;;1.43;100.00
829;BME280;396;52.558;13.188;2023-01-29T07:47:52;101966.13;;;1.47;100.00
829;BME280;396;52.558;13.188;2023-01-29T07:50:20;101960.81;;;1.47;100.00
829;BME280;396;52.558;13.188;2023-01-29T07:52:46;101959.56;;;1.43;100.00
829;BME280;396;52.558;13.188;2023-01-29T07:55:15;101957.50;;;1.45;100.00
829;BME280;396;52.558;13.188;2023-01-29T07:57:42;101970.84;;;1.45;100.00
829;BME280;396;52.558;13.188;2023-01-29T08:00:10;101972.91;;;1.43;100.00
829;BME280;396;52.558;13.188;2023-01-29T08:02:36;101964.88;;;1.49;100.00
829;BME280;396;52.558;13.188;2023-01-29T08:05:04;101961.41;;;1.56;100.00
829;BME280;396;52.558;13.188;2023-01-29T08:07:30;101951.13;;;1.59;100.00
829;BME280;396;52.558;13.188;2023-01-29T08:09:57;101948.66;;;1.58;100.00
829;BME280;396;52.558;13.188;2023-01-29T08:12:25;101947.44;;;1.54;100.00
829;BME280;396;52.558;13.188;2023-01-29T08:14:51;101959.75;;;1.55;100.00
829;BME280;396;52.558;13.188;2023-01-29T08:17:18;101957.91;;;1.48;100.00
829;BME280;396;52.558;13.188;2023-01-29T08:19:44;101948.88;;;1.49;100.00
829;BME280;396;52.558;13.188;2023-01-29T08:22:11;101944.75;;;1.54;100.00
829;BME280;396;52.558;13.188;2023-01-29T08:24:39;101958.13;;;1.60;100.00
829;BME280;396;52.558;13.188;2023-01-29T08:27:06;101957.06;;;1.68;100.00
829;BME280;396;52.558;13.188;2023-01-29T08:29:34;101956.25;;;1.74;100.00
829;BME280;396;52.558;13.188;2023-01-29T08:32:00;101946.78;;;1.71;100.00
829;BME280;396;52.558;13.188;2023-01-29T08:34:27;101951.31;;;1.71;100.00
829;BME280;396;52.558;13.188;2023-01-29T08:36:53;101958.69;;;1.75;100.00
829;BME280;396;52.558;13.188;2023-01-29T08:39:20;101964.88;;;1.83;100.00
829;BME280;396;52.558;13.188;2023-01-29T08:41:47;101954.78;;;1.85;100.00
829;BME280;396;52.558;13.188;2023-01-29T08:44:13;101949.03;;;1.88;100.00
829;BME280;396;52.558;13.188;2023-01-29T08:46:41;101950.66;;;1.89;100.00
829;BME280;396;52.558;13.188;2023-01-29T08:49:08;101943.28;;;1.84;100.00
829;BME280;396;52.558;13.188;2023-01-29T08:51:34;101945.31;;;1.89;100.00
829;BME280;396;52.558;13.188;2023-01-29T08:54:01;101949.84;;;1.95;100.00
829;BME280;396;52.558;13.188;2023-01-29T08:56:27;101950.84;;;1.94;100.00
829;BME280;396;52.558;13.188;2023-01-29T08:58:54;101947.34;;;2.00;100.00
829;BME280;396;52.558;13.188;2023-01-29T09:01:20;101949.34;;;2.11;100.00
829;BME280;396;52.558;13.188;2023-01-29T09:03:48;101955.94;;;2.15;100.00
829;BME280;396;52.558;13.188;2023-01-29T09:06:16;101940.69;;;2.22;100.00
829;BME280;396;52.558;13.188;2023-01-29T09:08:43;101932.69;;;2.16;100.00
829;BME280;396;52.558;13.188;2023-01-29T09:11:09;101935.97;;;2.18;100.00
829;BME280;396;52.558;13.188;2023-01-29T09:13:36;101948.72;;;2.22;100.00
829;BME280;396;52.558;13.188;2023-01-29T09:16:03;101951.16;;;2.31;100.00
829;BME280;396;52.558;13.188;2023-01-29T09:18:30;101941.03;;;2.39;100.00
829;BME280;396;52.558;13.188;2023-01-29T09:20:58;101949.44;;;2.43;100.00
829;BME280;396;52.558;13.188;2023-01-29T09:23:27;101941.03;;;2.39;100.00
829;BME280;396;52.558;13.188;2023-01-29T09:25:53;101946.75;;;2.43;100.00
829;BME280;396;52.558;13.188;2023-01-29T09:28:20;101938.09;;;2.47;100.00
829;BME280;396;52.558;13.188;2023-01-29T09:30:46;101929.47;;;2.45;100.00
829;BME280;396;52.558;13.188;2023-01-29T09:33:13;101928.03;;;2.43;100.00
829;BME280;396;52.558;13.188;2023-01-29T09:35:40;101928.50;;;2.40;100.00
829;BME280;396;52.558;13.188;2023-01-29T09:38:09;101918.38;;;2.42;100.00
829;BME280;396;52.558;13.188;2023-01-29T09:40:41;101916.06;;;2.52;100.00
829;BME280;396;52.558;13.188;2023-01-29T09:43:17;101920.75;;;2.57;100.00
829;BME280;396;52.558;13.188;2023-01-29T09:45:52;101919.44;;;2.72;100.00
829;BME280;396;52.558;13.188;2023-01-29T09:48:22;101911.19;;;2.74;100.00
829;BME280;396;52.558;13.188;2023-01-29T09:50:53;101898.00;;;2.79;100.00
829;BME280;396;52.558;13.188;2023-01-29T09:53:26;101901.84;;;2.90;100.00
829;BME280;396;52.558;13.188;2023-01-29T09:55:58;101893.97;;;2.95;99.80
829;BME280;396;52.558;13.188;2023-01-29T09:58:29;101899.72;;;2.98;99.13
829;BME280;396;52.558;13.188;2023-01-29T10:01:01;101889.66;;;2.94;97.79
829;BME280;396;52.558;13.188;2023-01-29T10:03:56;101886.69;;;2.77;98.71
829;BME280;396;52.558;13.188;2023-01-29T10:06:39;101885.09;;;2.69;98.90
829;BME280;396;52.558;13.188;2023-01-29T10:09:35;101890.25;;;2.71;99.07
829;BME280;396;52.558;13.188;2023-01-29T10:12:17;101886.91;;;2.75;98.78
829;BME280;396;52.558;13.188;2023-01-29T10:14:53;101880.56;;;2.70;98.88
829;BME280;396;52.558;13.188;2023-01-29T10:17:35;101873.81;;;2.67;99.04
829;BME280;396;52.558;13.188;2023-01-29T10:20:17;101881.09;;;2.85;99.45
829;BME280;396;52.558;13.188;2023-01-29T10:22:59;101880.16;;;2.98;99.09
829;BME280;396;52.558;13.188;2023-01-29T10:25:32;101890.81;;;3.04;97.23
829;BME280;396;52.558;13.188;2023-01-29T10:28:01;101897.50;;;3.14;96.75
829;BME280;396;52.558;13.188;2023-01-29T10:30:31;101895.38;;;3.22;96.92
829;BME280;396;52.558;13.188;2023-01-29T10:33:01;101889.03;;;3.42;95.85
829;BME280;396;52.558;13.188;2023-01-29T10:35:30;101885.56;;;3.41;94.62
829;BME280;396;52.558;13.188;2023-01-29T10:38:14;101885.19;;;3.56;94.98
829;BME280;396;52.558;13.188;2023-01-29T10:40:45;101880.75;;;3.68;94.74
829;BME280;396;52.558;13.188;2023-01-29T10:43:18;101882.50;;;3.74;92.52
829;BME280;396;52.558;13.188;2023-01-29T10:45:54;101874.75;;;3.66;92.31
829;BME280;396;52.558;13.188;2023-01-29T10:48:37;101856.53;;;3.75;93.22
829;BME280;396;52.558;13.188;2023-01-29T10:51:14;101861.59;;;3.83;92.36
829;BME280;396;52.558;13.188;2023-01-29T10:53:56;101853.03;;;3.93;92.23
829;BME280;396;52.558;13.188;2023-01-29T10:56:36;101845.50;;;4.01;90.99
829;BME280;396;52.558;13.188;2023-01-29T10:59:22;101840.94;;;4.02;90.03
829;BME280;396;52.558;13.188;2023-01-29T11:01:56;101832.34;;;4.12;89.32
829;BME280;396;52.558;13.188;2023-01-29T11:04:24;101829.47;;;4.13;89.03
829;BME280;396;52.558;13.188;2023-01-29T11:06:51;101825.84;;;4.19;87.66
829;BME280;396;52.558;13.188;2023-01-29T11:09:25;101826.00;;;4.24;88.72
829;BME280;396;52.558;13.188;2023-01-29T11:11:58;101821.25;;;4.26;87.85
829;BME280;396;52.558;13.188;2023-01-29T11:14:29;101814.88;;;4.09;86.98
829;BME280;396;52.558;13.188;2023-01-29T11:16:57;101804.03;;;4.04;88.10
829;BME280;396;52.558;13.188;2023-01-29T11:19:36;101805.38;;;3.95;89.11
829;BME280;396;52.558;13.188;2023-01-29T11:22:03;101807.50;;;4.04;88.55
829;BME280;396;52.558;13.188;2023-01-29T11:24:30;101809.50;;;4.09;87.60
829;BME280;396;52.558;13.188;2023-01-29T11:26:58;101795.31;;;4.20;87.24
829;BME280;396;52.558;13.188;2023-01-29T11:29:32;101795.69;;;4.24;86.92
829;BME280;396;52.558;13.188;2023-01-29T11:32:02;101792.63;;;4.20;87.93
829;BME280;396;52.558;13.188;2023-01-29T11:34:30;101782.97;;;4.19;87.88
829;BME280;396;52.558;13.188;2023-01-29T11:36:58;101785.81;;;4.36;87.92
829;BME280;396;52.558;13.188;2023-01-29T11:39:26;101785.63;;;4.19;87.71
829;BME280;396;52.558;13.188;2023-01-29T11:41:55;101775.91;;;4.37;86.53
829;BME280;396;52.558;13.188;2023-01-29T11:44:29;101780.69;;;4.35;85.47
829;BME280;396;52.558;13.188;2023-01-29T11:47:07;101774.16;;;4.42;85.79
829;BME280;396;52.558;13.188;2023-01-29T11:49:36;101774.84;;;4.38;85.67
829;BME280;396;52.558;13.188;2023-01-29T11:52:04;101763.88;;;4.27;86.22
829;BME280;396;52.558;13.188;2023-01-29T11:54:37;101756.53;;;4.46;85.68
829;BME280;396;52.558;13.188;2023-01-29T11:59:49;101754.72;;;4.70;85.55
829;BME280;396;52.558;13.188;2023-01-29T12:02:23;101756.47;;;4.76;84.97
829;BME280;396;52.558;13.188;2023-01-29T12:04:53;101758.22;;;4.71;84.54
829;BME280;396;52.558;13.188;2023-01-29T12:07:22;101749.91;;;4.72;84.93
829;BME280;396;52.558;13.188;2023-01-29T12:09:53;101747.34;;;4.77;85.44
829;BME280;396;52.558;13.188;2023-01-29T12:12:37;101742.13;;;4.71;84.03
829;BME280;396;52.558;13.188;2023-01-29T12:15:18;101750.41;;;4.69;84.15
829;BME280;396;52.558;13.188;2023-01-29T12:17:52;101739.78;;;4.63;84.13
829;BME280;396;52.558;13.188;2023-01-29T12:20:26;101728.69;;;4.59;85.68
829;BME280;396;52.558;13.188;2023-01-29T12:23:00;101733.56;;;4.50;86.20
829;BME280;396;52.558;13.188;2023-01-29T12:25:37;101738.34;;;4.60;85.88
829;BME280;396;52.558;13.188;2023-01-29T12:28:14;101730.78;;;4.57;85.87
829;BME280;396;52.558;13.188;2023-01-29T12:31:04;101722.25;;;4.60;84.86
829;BME280;396;52.558;13.188;2023-01-29T12:33:39;101727.50;;;4.55;84.90
829;BME280;396;52.558;13.188;2023-01-29T12:36:12;101724.00;;;4.54;84.63
829;BME280;396;52.558;13.188;2023-01-29T12:38:42;101709.44;;;4.39;85.59
829;BME280;396;52.558;13.188;2023-01-29T12:41:24;101691.56;;;4.33;86.96
829;BME280;396;52.558;13.188;2023-01-29T12:43:56;101700.22;;;4.35;87.03
829;BME280;396;52.558;13.188;2023-01-29T12:46:29;101688.22;;;4.25;86.32
829;BME280;396;52.558;13.188;2023-01-29T12:49:01;101686.34;;;4.26;86.54
829;BME280;396;52.558;13.188;2023-01-29T12:51:32;101678.25;;;4.14;87.08
829;BME280;396;52.558;13.188;2023-01-29T12:54:04;101686.06;;;4.16;86.98
829;BME280;396;52.558;13.188;2023-01-29T12:56:35;101684.81;;;4.18;87.36
829;BME280;396;52.558;13.188;2023-01-29T12:59:11;101685.28;;;4.27;86.42
829;BME280;396;52.558;13.188;2023-01-29T13:01:45;101686.53;;;4.24;87.59
829;BME280;396;52.558;13.188;2023-01-29T13:04:18;101685.84;;;4.29;87.16
829;BME280;396;52.558;13.188;2023-01-29T13:06:53;101689.13;;;4.31;87.14
829;BME280;396;52.558;13.188;2023-01-29T13:09:25;101691.47;;;4.27;87.64
829;BME280;396;52.558;13.188;2023-01-29T13:11:55;101688.22;;;4.25;87.80
829;BME280;396;52.558;13.188;2023-01-29T13:14:25;101687.72;;;4.17;87.08
829;BME280;396;52.558;13.188;2023-01-29T13:17:01;101684.81;;;4.18;87.22
829;BME280;396;52.558;13.188;2023-01-29T13:19:35;101672.31;;;4.24;86.92
829;BME280;396;52.558;13.188;2023-01-29T13:22:12;101671.97;;;4.20;87.23
829;BME280;396;52.558;13.188;2023-01-29T13:24:41;101674.53;;;4.15;87.61
829;BME280;396;52.558;13.188;2023-01-29T13:27:20;101670.56;;;4.06;88.67
829;BME280;396;52.558;13.188;2023-01-29T13:29:47;101672.34;;;4.12;87.80
829;BME280;396;52.558;13.188;2023-01-29T13:32:20;101666.38;;;4.10;87.79
829;BME280;396;52.558;13.188;2023-01-29T13:34:50;101671.97;;;4.09;88.22
829;BME280;396;52.558;13.188;2023-01-29T13:37:24;101669.88;;;4.11;88.10
829;BME280;396;52.558;13.188;2023-01-29T13:39:53;101664.50;;;3.99;88.46
829;BME280;396;52.558;13.188;2023-01-29T13:42:23;101659.59;;;3.96;88.84
829;BME280;396;52.558;13.188;2023-01-29T13:44:51;101652.81;;;3.93;89.68
829;BME280;396;52.558;13.188;2023-01-29T13:47:24;101646.19;;;3.96;89.13
829;BME280;396;52.558;13.188;2023-01-29T13:49:54;101658.91;;;4.00;89.36
829;BME280;396;52.558;13.188;2023-01-29T13:52:28;101664.94;;;3.96;89.61
829;BME280;396;52.558;13.188;2023-01-29T13:54:58;101657.00;;;3.89;90.65